Alberta, Minnesota
Current Conditions -  °F | °C
As of 1:04 AM on Sunday 26 Oct 2014 (Local Time) from KMOX Reporting Station
Clear Clear  
Wind Chill: -1°   Ceiling: Unl
Heat Index:   Visibility: 10mi
Dew Point: -3°   Wind: 6mph
Humidity: 70%   Direction: 170°S
Pressure: 30.02"   Gusts: NA
Location:  45.57°N, 96.05°W
Report Text: KMOX 260604Z AUTO 17005KT 10SM CLR 02/M03 A3002 RMK AO2
Loading
Personal Weather Stations






























Interactive Weather Map
Tropical Storm Tracking
New forecast layout! Learn more

10-Day Weather Forecast

Advertisements
Track Severe Weather on mobile